sensor_id;sensor_type;location;lat;lon;timestamp;P1;durP1;ratioP1;P2;durP2;ratioP2
11344;SDS011;5727;42.600;23.028;2022-08-30T00:01:14;19.27;;;17.27;;
11344;SDS011;5727;42.600;23.028;2022-08-30T00:03:46;19.53;;;16.73;;
11344;SDS011;5727;42.600;23.028;2022-08-30T00:06:14;19.20;;;15.53;;
11344;SDS011;5727;42.600;23.028;2022-08-30T00:08:42;21.63;;;16.20;;
11344;SDS011;5727;42.600;23.028;2022-08-30T00:11:09;19.70;;;17.20;;
11344;SDS011;5727;42.600;23.028;2022-08-30T00:13:40;20.23;;;17.77;;
11344;SDS011;5727;42.600;23.028;2022-08-30T00:16:08;18.50;;;16.53;;
11344;SDS011;5727;42.600;23.028;2022-08-30T00:18:36;21.73;;;16.57;;
11344;SDS011;5727;42.600;23.028;2022-08-30T00:21:04;19.23;;;15.90;;
11344;SDS011;5727;42.600;23.028;2022-08-30T00:23:31;16.43;;;14.70;;
11344;SDS011;5727;42.600;23.028;2022-08-30T00:25:58;22.07;;;15.27;;
11344;SDS011;5727;42.600;23.028;2022-08-30T00:28:25;18.60;;;16.60;;
11344;SDS011;5727;42.600;23.028;2022-08-30T00:30:54;19.93;;;16.17;;
11344;SDS011;5727;42.600;23.028;2022-08-30T00:33:20;18.40;;;16.10;;
11344;SDS011;5727;42.600;23.028;2022-08-30T00:35:48;18.73;;;16.13;;
11344;SDS011;5727;42.600;23.028;2022-08-30T00:38:14;18.27;;;15.57;;
11344;SDS011;5727;42.600;23.028;2022-08-30T00:40:42;18.10;;;16.00;;
11344;SDS011;5727;42.600;23.028;2022-08-30T00:43:11;20.63;;;16.80;;
11344;SDS011;5727;42.600;23.028;2022-08-30T00:45:41;18.80;;;16.77;;
11344;SDS011;5727;42.600;23.028;2022-08-30T00:48:09;17.57;;;15.67;;
11344;SDS011;5727;42.600;23.028;2022-08-30T00:50:37;16.57;;;14.77;;
11344;SDS011;5727;42.600;23.028;2022-08-30T00:53:09;16.63;;;14.90;;
11344;SDS011;5727;42.600;23.028;2022-08-30T00:55:39;15.40;;;13.87;;
11344;SDS011;5727;42.600;23.028;2022-08-30T00:58:09;15.53;;;13.83;;
11344;SDS011;5727;42.600;23.028;2022-08-30T01:00:40;16.23;;;14.67;;
11344;SDS011;5727;42.600;23.028;2022-08-30T01:03:07;18.53;;;15.57;;
11344;SDS011;5727;42.600;23.028;2022-08-30T01:05:35;18.07;;;16.03;;
11344;SDS011;5727;42.600;23.028;2022-08-30T01:08:03;18.93;;;16.47;;
11344;SDS011;5727;42.600;23.028;2022-08-30T01:10:30;20.10;;;16.40;;
11344;SDS011;5727;42.600;23.028;2022-08-30T01:12:58;17.80;;;15.87;;
11344;SDS011;5727;42.600;23.028;2022-08-30T01:15:25;18.93;;;16.17;;
11344;SDS011;5727;42.600;23.028;2022-08-30T01:17:52;18.20;;;16.30;;
11344;SDS011;5727;42.600;23.028;2022-08-30T01:20:21;18.37;;;16.43;;
11344;SDS011;5727;42.600;23.028;2022-08-30T01:22:58;17.47;;;15.67;;
11344;SDS011;5727;42.600;23.028;2022-08-30T01:25:29;15.27;;;13.67;;
11344;SDS011;5727;42.600;23.028;2022-08-30T01:27:57;16.13;;;14.27;;
11344;SDS011;5727;42.600;23.028;2022-08-30T01:30:26;16.60;;;14.17;;
11344;SDS011;5727;42.600;23.028;2022-08-30T01:32:56;16.27;;;14.70;;
11344;SDS011;5727;42.600;23.028;2022-08-30T01:35:25;15.90;;;13.97;;
11344;SDS011;5727;42.600;23.028;2022-08-30T01:37:52;16.47;;;14.70;;
11344;SDS011;5727;42.600;23.028;2022-08-30T01:40:21;22.20;;;14.80;;
11344;SDS011;5727;42.600;23.028;2022-08-30T01:42:48;16.87;;;14.93;;
11344;SDS011;5727;42.600;23.028;2022-08-30T01:45:15;17.73;;;15.77;;
11344;SDS011;5727;42.600;23.028;2022-08-30T01:47:41;19.57;;;16.27;;
11344;SDS011;5727;42.600;23.028;2022-08-30T01:50:09;20.00;;;17.03;;
11344;SDS011;5727;42.600;23.028;2022-08-30T01:52:36;18.87;;;15.73;;
11344;SDS011;5727;42.600;23.028;2022-08-30T01:55:04;19.70;;;16.57;;
11344;SDS011;5727;42.600;23.028;2022-08-30T01:57:33;20.00;;;16.13;;
11344;SDS011;5727;42.600;23.028;2022-08-30T01:59:59;21.53;;;16.03;;
11344;SDS011;5727;42.600;23.028;2022-08-30T02:02:27;17.43;;;15.63;;
11344;SDS011;5727;42.600;23.028;2022-08-30T02:04:54;16.60;;;15.07;;
11344;SDS011;5727;42.600;23.028;2022-08-30T02:07:22;17.67;;;15.73;;
11344;SDS011;5727;42.600;23.028;2022-08-30T02:09:49;23.70;;;15.87;;
11344;SDS011;5727;42.600;23.028;2022-08-30T02:12:16;16.70;;;14.67;;
11344;SDS011;5727;42.600;23.028;2022-08-30T02:14:45;21.33;;;15.73;;
11344;SDS011;5727;42.600;23.028;2022-08-30T02:17:12;16.73;;;14.97;;
11344;SDS011;5727;42.600;23.028;2022-08-30T02:19:40;20.60;;;15.20;;
11344;SDS011;5727;42.600;23.028;2022-08-30T02:22:07;17.87;;;15.93;;
11344;SDS011;5727;42.600;23.028;2022-08-30T02:24:34;17.73;;;15.07;;
11344;SDS011;5727;42.600;23.028;2022-08-30T02:27:01;17.80;;;15.80;;
11344;SDS011;5727;42.600;23.028;2022-08-30T02:29:28;17.23;;;14.63;;
11344;SDS011;5727;42.600;23.028;2022-08-30T02:31:56;17.40;;;15.43;;
11344;SDS011;5727;42.600;23.028;2022-08-30T02:34:23;17.40;;;15.37;;
11344;SDS011;5727;42.600;23.028;2022-08-30T02:36:50;17.10;;;15.10;;
11344;SDS011;5727;42.600;23.028;2022-08-30T02:39:17;13.43;;;12.10;;
11344;SDS011;5727;42.600;23.028;2022-08-30T02:41:44;13.73;;;11.83;;
11344;SDS011;5727;42.600;23.028;2022-08-30T02:44:10;19.70;;;13.80;;
11344;SDS011;5727;42.600;23.028;2022-08-30T02:46:38;14.13;;;12.70;;
11344;SDS011;5727;42.600;23.028;2022-08-30T02:49:06;14.97;;;12.90;;
11344;SDS011;5727;42.600;23.028;2022-08-30T02:51:33;16.03;;;14.47;;
11344;SDS011;5727;42.600;23.028;2022-08-30T02:54:01;18.47;;;15.43;;
11344;SDS011;5727;42.600;23.028;2022-08-30T02:56:27;14.40;;;13.00;;
11344;SDS011;5727;42.600;23.028;2022-08-30T02:58:55;15.57;;;13.37;;
11344;SDS011;5727;42.600;23.028;2022-08-30T03:01:22;16.83;;;13.00;;
11344;SDS011;5727;42.600;23.028;2022-08-30T03:03:49;15.67;;;12.57;;
11344;SDS011;5727;42.600;23.028;2022-08-30T03:06:17;16.30;;;13.07;;
11344;SDS011;5727;42.600;23.028;2022-08-30T03:08:44;15.93;;;13.33;;
11344;SDS011;5727;42.600;23.028;2022-08-30T03:11:11;14.30;;;12.77;;
11344;SDS011;5727;42.600;23.028;2022-08-30T03:13:38;16.97;;;12.93;;
11344;SDS011;5727;42.600;23.028;2022-08-30T03:16:05;14.93;;;12.40;;
11344;SDS011;5727;42.600;23.028;2022-08-30T03:18:32;14.13;;;12.77;;
11344;SDS011;5727;42.600;23.028;2022-08-30T03:20:59;14.93;;;12.00;;
11344;SDS011;5727;42.600;23.028;2022-08-30T03:23:27;14.00;;;12.50;;
11344;SDS011;5727;42.600;23.028;2022-08-30T03:25:54;14.27;;;12.77;;
11344;SDS011;5727;42.600;23.028;2022-08-30T03:28:21;14.17;;;12.30;;
11344;SDS011;5727;42.600;23.028;2022-08-30T03:30:48;13.13;;;11.93;;
11344;SDS011;5727;42.600;23.028;2022-08-30T03:33:15;14.07;;;11.40;;
11344;SDS011;5727;42.600;23.028;2022-08-30T03:35:42;15.13;;;11.67;;
11344;SDS011;5727;42.600;23.028;2022-08-30T03:38:09;12.67;;;11.37;;
11344;SDS011;5727;42.600;23.028;2022-08-30T03:40:37;12.30;;;10.93;;
11344;SDS011;5727;42.600;23.028;2022-08-30T03:43:04;12.70;;;11.13;;
11344;SDS011;5727;42.600;23.028;2022-08-30T03:45:30;12.53;;;11.00;;
11344;SDS011;5727;42.600;23.028;2022-08-30T03:47:57;12.93;;;10.83;;
11344;SDS011;5727;42.600;23.028;2022-08-30T03:50:26;13.10;;;10.50;;
11344;SDS011;5727;42.600;23.028;2022-08-30T03:52:54;12.00;;;10.77;;
11344;SDS011;5727;42.600;23.028;2022-08-30T03:55:21;15.67;;;11.20;;
11344;SDS011;5727;42.600;23.028;2022-08-30T03:57:50;14.10;;;11.03;;
11344;SDS011;5727;42.600;23.028;2022-08-30T04:00:16;13.00;;;11.20;;
11344;SDS011;5727;42.600;23.028;2022-08-30T04:02:43;14.30;;;12.07;;
11344;SDS011;5727;42.600;23.028;2022-08-30T04:05:10;13.33;;;12.10;;
11344;SDS011;5727;42.600;23.028;2022-08-30T04:07:38;16.13;;;12.37;;
11344;SDS011;5727;42.600;23.028;2022-08-30T04:10:05;14.17;;;11.90;;
11344;SDS011;5727;42.600;23.028;2022-08-30T04:12:34;13.17;;;11.90;;
11344;SDS011;5727;42.600;23.028;2022-08-30T04:15:03;16.80;;;12.57;;
11344;SDS011;5727;42.600;23.028;2022-08-30T04:17:31;14.37;;;11.93;;
11344;SDS011;5727;42.600;23.028;2022-08-30T04:19:58;12.97;;;11.67;;
11344;SDS011;5727;42.600;23.028;2022-08-30T04:22:25;14.10;;;11.57;;
11344;SDS011;5727;42.600;23.028;2022-08-30T04:24:52;13.53;;;12.13;;
11344;SDS011;5727;42.600;23.028;2022-08-30T04:27:19;15.90;;;11.60;;
11344;SDS011;5727;42.600;23.028;2022-08-30T04:29:46;15.63;;;13.30;;
11344;SDS011;5727;42.600;23.028;2022-08-30T04:32:14;13.57;;;11.87;;
11344;SDS011;5727;42.600;23.028;2022-08-30T04:34:41;13.47;;;11.97;;
11344;SDS011;5727;42.600;23.028;2022-08-30T04:37:08;14.50;;;12.27;;
11344;SDS011;5727;42.600;23.028;2022-08-30T04:39:35;13.67;;;12.13;;
11344;SDS011;5727;42.600;23.028;2022-08-30T04:42:02;13.70;;;12.40;;
11344;SDS011;5727;42.600;23.028;2022-08-30T04:44:29;19.20;;;12.17;;
11344;SDS011;5727;42.600;23.028;2022-08-30T04:46:57;16.77;;;12.77;;
11344;SDS011;5727;42.600;23.028;2022-08-30T04:49:26;13.37;;;11.70;;
11344;SDS011;5727;42.600;23.028;2022-08-30T04:51:53;13.70;;;11.73;;
11344;SDS011;5727;42.600;23.028;2022-08-30T04:54:19;14.30;;;12.90;;
11344;SDS011;5727;42.600;23.028;2022-08-30T04:56:46;14.37;;;12.90;;
11344;SDS011;5727;42.600;23.028;2022-08-30T04:59:13;13.73;;;12.33;;
11344;SDS011;5727;42.600;23.028;2022-08-30T05:01:40;14.03;;;11.73;;
11344;SDS011;5727;42.600;23.028;2022-08-30T05:04:07;14.67;;;12.90;;
11344;SDS011;5727;42.600;23.028;2022-08-30T05:06:35;14.87;;;13.27;;
11344;SDS011;5727;42.600;23.028;2022-08-30T05:09:02;15.93;;;14.23;;
11344;SDS011;5727;42.600;23.028;2022-08-30T05:11:29;16.23;;;13.07;;
11344;SDS011;5727;42.600;23.028;2022-08-30T05:13:56;15.33;;;13.77;;
11344;SDS011;5727;42.600;23.028;2022-08-30T05:16:23;14.60;;;13.07;;
11344;SDS011;5727;42.600;23.028;2022-08-30T05:18:51;15.07;;;13.47;;
11344;SDS011;5727;42.600;23.028;2022-08-30T05:21:19;15.67;;;14.10;;
11344;SDS011;5727;42.600;23.028;2022-08-30T05:23:49;18.17;;;13.43;;
11344;SDS011;5727;42.600;23.028;2022-08-30T05:26:19;17.27;;;14.00;;
11344;SDS011;5727;42.600;23.028;2022-08-30T05:28:48;14.77;;;12.93;;
11344;SDS011;5727;42.600;23.028;2022-08-30T05:31:15;15.90;;;13.47;;
11344;SDS011;5727;42.600;23.028;2022-08-30T05:33:43;14.03;;;11.27;;
11344;SDS011;5727;42.600;23.028;2022-08-30T05:36:11;14.10;;;10.77;;
11344;SDS011;5727;42.600;23.028;2022-08-30T05:38:40;12.90;;;10.77;;
11344;SDS011;5727;42.600;23.028;2022-08-30T05:41:09;14.80;;;10.70;;
11344;SDS011;5727;42.600;23.028;2022-08-30T05:43:36;12.43;;;10.73;;
11344;SDS011;5727;42.600;23.028;2022-08-30T05:46:04;12.67;;;11.30;;
11344;SDS011;5727;42.600;23.028;2022-08-30T05:48:33;12.60;;;11.30;;
11344;SDS011;5727;42.600;23.028;2022-08-30T05:51:01;17.33;;;13.13;;
11344;SDS011;5727;42.600;23.028;2022-08-30T05:53:29;15.93;;;13.20;;
11344;SDS011;5727;42.600;23.028;2022-08-30T05:55:55;14.07;;;12.67;;
11344;SDS011;5727;42.600;23.028;2022-08-30T05:58:24;14.40;;;12.33;;
11344;SDS011;5727;42.600;23.028;2022-08-30T06:00:51;15.20;;;13.60;;
11344;SDS011;5727;42.600;23.028;2022-08-30T06:03:17;13.17;;;11.87;;
11344;SDS011;5727;42.600;23.028;2022-08-30T06:05:44;15.73;;;13.13;;
11344;SDS011;5727;42.600;23.028;2022-08-30T06:08:11;17.63;;;12.83;;
11344;SDS011;5727;42.600;23.028;2022-08-30T06:10:38;12.90;;;11.70;;
11344;SDS011;5727;42.600;23.028;2022-08-30T06:13:05;14.97;;;13.00;;
11344;SDS011;5727;42.600;23.028;2022-08-30T06:15:33;15.83;;;13.83;;
11344;SDS011;5727;42.600;23.028;2022-08-30T06:18:00;17.07;;;13.73;;
11344;SDS011;5727;42.600;23.028;2022-08-30T06:20:26;16.07;;;14.17;;
11344;SDS011;5727;42.600;23.028;2022-08-30T06:22:53;15.63;;;13.37;;
11344;SDS011;5727;42.600;23.028;2022-08-30T06:25:20;18.87;;;13.53;;
11344;SDS011;5727;42.600;23.028;2022-08-30T06:27:47;14.27;;;12.10;;
11344;SDS011;5727;42.600;23.028;2022-08-30T06:30:13;15.43;;;12.13;;
11344;SDS011;5727;42.600;23.028;2022-08-30T06:32:42;14.67;;;12.27;;
11344;SDS011;5727;42.600;23.028;2022-08-30T06:35:09;12.73;;;11.43;;
11344;SDS011;5727;42.600;23.028;2022-08-30T06:37:36;14.50;;;13.03;;
11344;SDS011;5727;42.600;23.028;2022-08-30T06:40:03;16.00;;;12.57;;
11344;SDS011;5727;42.600;23.028;2022-08-30T06:42:31;13.63;;;12.17;;
11344;SDS011;5727;42.600;23.028;2022-08-30T06:44:58;15.23;;;12.53;;
11344;SDS011;5727;42.600;23.028;2022-08-30T06:47:26;14.80;;;11.73;;
11344;SDS011;5727;42.600;23.028;2022-08-30T06:49:55;13.07;;;11.77;;
11344;SDS011;5727;42.600;23.028;2022-08-30T06:52:22;16.10;;;12.07;;
11344;SDS011;5727;42.600;23.028;2022-08-30T06:54:49;17.03;;;11.83;;
11344;SDS011;5727;42.600;23.028;2022-08-30T06:57:17;15.13;;;11.77;;
11344;SDS011;5727;42.600;23.028;2022-08-30T06:59:44;14.50;;;11.97;;
11344;SDS011;5727;42.600;23.028;2022-08-30T07:02:10;13.43;;;12.03;;
11344;SDS011;5727;42.600;23.028;2022-08-30T07:04:37;14.57;;;13.10;;
11344;SDS011;5727;42.600;23.028;2022-08-30T07:07:05;13.73;;;12.27;;
11344;SDS011;5727;42.600;23.028;2022-08-30T07:09:35;16.87;;;12.93;;
11344;SDS011;5727;42.600;23.028;2022-08-30T07:12:07;16.10;;;13.57;;
11344;SDS011;5727;42.600;23.028;2022-08-30T07:14:35;14.80;;;13.30;;
11344;SDS011;5727;42.600;23.028;2022-08-30T07:17:01;14.87;;;12.37;;
11344;SDS011;5727;42.600;23.028;2022-08-30T07:19:48;20.13;;;13.73;;
11344;SDS011;5727;42.600;23.028;2022-08-30T07:22:16;16.57;;;12.90;;
11344;SDS011;5727;42.600;23.028;2022-08-30T07:24:43;14.90;;;13.30;;
11344;SDS011;5727;42.600;23.028;2022-08-30T07:27:09;17.93;;;14.00;;
11344;SDS011;5727;42.600;23.028;2022-08-30T07:29:36;15.57;;;13.83;;
11344;SDS011;5727;42.600;23.028;2022-08-30T07:32:03;15.20;;;13.60;;
11344;SDS011;5727;42.600;23.028;2022-08-30T07:34:31;18.13;;;13.77;;
11344;SDS011;5727;42.600;23.028;2022-08-30T07:36:58;16.80;;;13.67;;
11344;SDS011;5727;42.600;23.028;2022-08-30T07:39:27;19.90;;;13.87;;
11344;SDS011;5727;42.600;23.028;2022-08-30T07:41:53;17.07;;;13.13;;
11344;SDS011;5727;42.600;23.028;2022-08-30T07:44:20;16.70;;;12.57;;
11344;SDS011;5727;42.600;23.028;2022-08-30T07:46:47;17.70;;;13.47;;
11344;SDS011;5727;42.600;23.028;2022-08-30T07:49:14;15.33;;;12.93;;
11344;SDS011;5727;42.600;23.028;2022-08-30T07:51:41;24.40;;;14.20;;
11344;SDS011;5727;42.600;23.028;2022-08-30T07:54:08;19.97;;;14.50;;
11344;SDS011;5727;42.600;23.028;2022-08-30T07:56:36;22.83;;;16.47;;
11344;SDS011;5727;42.600;23.028;2022-08-30T07:59:03;27.00;;;16.93;;
11344;SDS011;5727;42.600;23.028;2022-08-30T08:01:30;19.30;;;16.07;;
11344;SDS011;5727;42.600;23.028;2022-08-30T08:03:57;20.40;;;16.53;;
11344;SDS011;5727;42.600;23.028;2022-08-30T08:06:24;17.87;;;14.93;;
11344;SDS011;5727;42.600;23.028;2022-08-30T08:08:51;20.17;;;14.17;;
11344;SDS011;5727;42.600;23.028;2022-08-30T08:11:21;22.83;;;13.40;;
11344;SDS011;5727;42.600;23.028;2022-08-30T08:13:51;20.47;;;13.67;;
11344;SDS011;5727;42.600;23.028;2022-08-30T08:16:19;22.77;;;14.63;;
11344;SDS011;5727;42.600;23.028;2022-08-30T08:18:46;20.00;;;15.90;;
11344;SDS011;5727;42.600;23.028;2022-08-30T08:21:13;21.37;;;15.20;;
11344;SDS011;5727;42.600;23.028;2022-08-30T08:23:52;21.10;;;16.03;;
11344;SDS011;5727;42.600;23.028;2022-08-30T08:26:22;23.37;;;17.27;;
11344;SDS011;5727;42.600;23.028;2022-08-30T08:28:49;24.33;;;17.07;;
11344;SDS011;5727;42.600;23.028;2022-08-30T08:31:18;23.63;;;16.30;;
11344;SDS011;5727;42.600;23.028;2022-08-30T08:33:46;25.03;;;17.50;;
11344;SDS011;5727;42.600;23.028;2022-08-30T08:36:14;17.93;;;16.03;;
11344;SDS011;5727;42.600;23.028;2022-08-30T08:38:42;20.20;;;18.10;;
11344;SDS011;5727;42.600;23.028;2022-08-30T08:41:17;22.83;;;17.53;;
11344;SDS011;5727;42.600;23.028;2022-08-30T08:43:55;22.70;;;16.17;;
11344;SDS011;5727;42.600;23.028;2022-08-30T08:46:25;18.07;;;15.33;;
11344;SDS011;5727;42.600;23.028;2022-08-30T08:48:56;17.30;;;15.30;;
11344;SDS011;5727;42.600;23.028;2022-08-30T08:51:32;20.60;;;15.73;;
11344;SDS011;5727;42.600;23.028;2022-08-30T08:54:20;22.13;;;15.73;;
11344;SDS011;5727;42.600;23.028;2022-08-30T08:56:53;19.33;;;14.67;;
11344;SDS011;5727;42.600;23.028;2022-08-30T08:59:23;20.07;;;13.93;;
11344;SDS011;5727;42.600;23.028;2022-08-30T09:01:52;20.23;;;14.97;;
11344;SDS011;5727;42.600;23.028;2022-08-30T09:04:21;20.60;;;13.50;;
11344;SDS011;5727;42.600;23.028;2022-08-30T09:06:54;19.27;;;15.50;;
11344;SDS011;5727;42.600;23.028;2022-08-30T09:09:25;25.80;;;16.43;;
11344;SDS011;5727;42.600;23.028;2022-08-30T09:11:55;20.40;;;15.30;;
11344;SDS011;5727;42.600;23.028;2022-08-30T09:14:24;21.03;;;17.27;;
11344;SDS011;5727;42.600;23.028;2022-08-30T09:16:58;18.23;;;14.90;;
11344;SDS011;5727;42.600;23.028;2022-08-30T09:19:28;16.77;;;14.83;;
11344;SDS011;5727;42.600;23.028;2022-08-30T09:22:05;16.50;;;11.93;;
11344;SDS011;5727;42.600;23.028;2022-08-30T09:24:42;13.33;;;11.40;;
11344;SDS011;5727;42.600;23.028;2022-08-30T09:27:14;13.40;;;12.10;;
11344;SDS011;5727;42.600;23.028;2022-08-30T09:29:53;16.17;;;11.63;;
11344;SDS011;5727;42.600;23.028;2022-08-30T09:32:33;15.20;;;10.97;;
11344;SDS011;5727;42.600;23.028;2022-08-30T09:35:04;15.27;;;12.17;;
11344;SDS011;5727;42.600;23.028;2022-08-30T09:37:44;13.73;;;12.07;;
11344;SDS011;5727;42.600;23.028;2022-08-30T09:40:15;15.67;;;11.30;;
11344;SDS011;5727;42.600;23.028;2022-08-30T09:43:01;15.30;;;12.17;;
11344;SDS011;5727;42.600;23.028;2022-08-30T09:45:32;14.83;;;11.33;;
11344;SDS011;5727;42.600;23.028;2022-08-30T09:50:51;16.67;;;10.40;;
11344;SDS011;5727;42.600;23.028;2022-08-30T09:53:26;16.57;;;10.17;;
11344;SDS011;5727;42.600;23.028;2022-08-30T09:56:01;11.67;;;8.77;;
11344;SDS011;5727;42.600;23.028;2022-08-30T09:58:38;10.93;;;9.70;;
11344;SDS011;5727;42.600;23.028;2022-08-30T10:01:23;10.00;;;9.00;;
11344;SDS011;5727;42.600;23.028;2022-08-30T10:04:06;11.00;;;8.33;;
11344;SDS011;5727;42.600;23.028;2022-08-30T10:06:45;11.57;;;8.57;;
11344;SDS011;5727;42.600;23.028;2022-08-30T10:09:26;10.53;;;8.73;;
11344;SDS011;5727;42.600;23.028;2022-08-30T10:12:06;9.20;;;8.13;;
11344;SDS011;5727;42.600;23.028;2022-08-30T10:14:50;10.83;;;8.20;;
11344;SDS011;5727;42.600;23.028;2022-08-30T10:17:30;11.43;;;8.30;;
11344;SDS011;5727;42.600;23.028;2022-08-30T10:22:59;10.60;;;8.03;;
11344;SDS011;5727;42.600;23.028;2022-08-30T10:25:32;9.97;;;8.40;;
11344;SDS011;5727;42.600;23.028;2022-08-30T10:28:06;10.23;;;8.20;;
11344;SDS011;5727;42.600;23.028;2022-08-30T10:30:39;9.03;;;8.20;;
11344;SDS011;5727;42.600;23.028;2022-08-30T10:33:11;9.50;;;8.60;;
11344;SDS011;5727;42.600;23.028;2022-08-30T10:35:45;8.83;;;7.60;;
11344;SDS011;5727;42.600;23.028;2022-08-30T10:38:20;13.23;;;8.17;;
11344;SDS011;5727;42.600;23.028;2022-08-30T10:40:54;10.57;;;8.33;;
11344;SDS011;5727;42.600;23.028;2022-08-30T10:43:40;10.90;;;8.13;;
11344;SDS011;5727;42.600;23.028;2022-08-30T10:46:15;7.77;;;6.97;;
11344;SDS011;5727;42.600;23.028;2022-08-30T10:48:50;10.73;;;7.63;;
11344;SDS011;5727;42.600;23.028;2022-08-30T10:51:21;9.33;;;7.67;;
11344;SDS011;5727;42.600;23.028;2022-08-30T10:53:54;9.63;;;8.40;;
11344;SDS011;5727;42.600;23.028;2022-08-30T10:56:26;9.43;;;8.07;;
11344;SDS011;5727;42.600;23.028;2022-08-30T10:58:54;8.60;;;7.70;;
11344;SDS011;5727;42.600;23.028;2022-08-30T11:01:26;9.67;;;8.07;;
11344;SDS011;5727;42.600;23.028;2022-08-30T11:07:26;9.63;;;7.87;;
11344;SDS011;5727;42.600;23.028;2022-08-30T11:10:14;9.53;;;8.03;;
11344;SDS011;5727;42.600;23.028;2022-08-30T11:12:54;10.53;;;8.53;;
11344;SDS011;5727;42.600;23.028;2022-08-30T11:15:27;10.93;;;8.80;;
11344;SDS011;5727;42.600;23.028;2022-08-30T11:17:57;12.17;;;9.10;;
11344;SDS011;5727;42.600;23.028;2022-08-30T11:20:32;12.67;;;8.70;;
11344;SDS011;5727;42.600;23.028;2022-08-30T11:23:14;11.17;;;8.47;;
11344;SDS011;5727;42.600;23.028;2022-08-30T11:25:54;15.17;;;9.33;;
11344;SDS011;5727;42.600;23.028;2022-08-30T11:31:33;12.30;;;9.20;;
11344;SDS011;5727;42.600;23.028;2022-08-30T11:34:02;10.37;;;9.00;;
11344;SDS011;5727;42.600;23.028;2022-08-30T11:39:50;14.40;;;10.13;;
11344;SDS011;5727;42.600;23.028;2022-08-30T11:42:29;14.97;;;10.07;;
11344;SDS011;5727;42.600;23.028;2022-08-30T11:51:11;12.27;;;9.43;;
11344;SDS011;5727;42.600;23.028;2022-08-30T11:53:50;21.60;;;10.47;;
11344;SDS011;5727;42.600;23.028;2022-08-30T11:56:25;12.97;;;9.53;;
11344;SDS011;5727;42.600;23.028;2022-08-30T11:58:59;15.03;;;9.60;;
11344;SDS011;5727;42.600;23.028;2022-08-30T12:01:32;12.73;;;9.83;;
11344;SDS011;5727;42.600;23.028;2022-08-30T12:04:03;14.17;;;9.50;;
11344;SDS011;5727;42.600;23.028;2022-08-30T12:06:44;12.67;;;9.90;;
11344;SDS011;5727;42.600;23.028;2022-08-30T12:18:21;14.50;;;9.87;;
11344;SDS011;5727;42.600;23.028;2022-08-30T12:21:02;14.80;;;9.70;;
11344;SDS011;5727;42.600;23.028;2022-08-30T12:23:36;11.13;;;9.93;;
11344;SDS011;5727;42.600;23.028;2022-08-30T12:26:09;13.60;;;10.37;;
11344;SDS011;5727;42.600;23.028;2022-08-30T12:28:40;14.23;;;9.90;;
11344;SDS011;5727;42.600;23.028;2022-08-30T12:31:09;16.37;;;11.13;;
11344;SDS011;5727;42.600;23.028;2022-08-30T12:33:39;16.00;;;11.27;;
11344;SDS011;5727;42.600;23.028;2022-08-30T12:36:13;11.10;;;9.87;;
11344;SDS011;5727;42.600;23.028;2022-08-30T12:39:03;10.87;;;8.60;;
11344;SDS011;5727;42.600;23.028;2022-08-30T12:41:34;10.80;;;7.87;;
11344;SDS011;5727;42.600;23.028;2022-08-30T12:44:03;9.90;;;8.90;;
11344;SDS011;5727;42.600;23.028;2022-08-30T12:46:34;11.30;;;7.80;;
11344;SDS011;5727;42.600;23.028;2022-08-30T12:49:02;9.20;;;7.43;;
11344;SDS011;5727;42.600;23.028;2022-08-30T12:51:39;10.13;;;7.97;;
11344;SDS011;5727;42.600;23.028;2022-08-30T12:54:12;11.97;;;7.83;;
11344;SDS011;5727;42.600;23.028;2022-08-30T12:56:49;12.57;;;8.67;;
11344;SDS011;5727;42.600;23.028;2022-08-30T13:02:17;11.73;;;7.73;;
11344;SDS011;5727;42.600;23.028;2022-08-30T13:04:47;14.33;;;8.27;;
11344;SDS011;5727;42.600;23.028;2022-08-30T13:07:26;10.73;;;8.53;;
11344;SDS011;5727;42.600;23.028;2022-08-30T13:10:06;11.87;;;8.20;;
11344;SDS011;5727;42.600;23.028;2022-08-30T13:12:38;12.87;;;8.20;;
11344;SDS011;5727;42.600;23.028;2022-08-30T13:15:13;10.20;;;7.37;;
11344;SDS011;5727;42.600;23.028;2022-08-30T13:17:42;13.77;;;8.67;;
11344;SDS011;5727;42.600;23.028;2022-08-30T13:20:20;14.57;;;8.67;;
11344;SDS011;5727;42.600;23.028;2022-08-30T13:23:00;13.40;;;9.20;;
11344;SDS011;5727;42.600;23.028;2022-08-30T13:25:29;11.20;;;7.80;;
11344;SDS011;5727;42.600;23.028;2022-08-30T13:27:56;10.70;;;8.47;;
11344;SDS011;5727;42.600;23.028;2022-08-30T13:30:25;14.00;;;8.37;;
11344;SDS011;5727;42.600;23.028;2022-08-30T13:32:52;9.77;;;7.23;;
11344;SDS011;5727;42.600;23.028;2022-08-30T13:35:19;12.03;;;7.73;;
11344;SDS011;5727;42.600;23.028;2022-08-30T13:37:46;16.00;;;8.93;;
11344;SDS011;5727;42.600;23.028;2022-08-30T13:40:13;11.83;;;8.43;;
11344;SDS011;5727;42.600;23.028;2022-08-30T13:42:42;12.53;;;7.80;;
11344;SDS011;5727;42.600;23.028;2022-08-30T13:45:09;10.15;;;8.20;;
11344;SDS011;5727;42.600;23.028;2022-08-30T13:47:38;13.18;;;8.77;;
11344;SDS011;5727;42.600;23.028;2022-08-30T13:50:06;9.30;;;8.13;;
11344;SDS011;5727;42.600;23.028;2022-08-30T13:52:33;12.05;;;7.90;;
11344;SDS011;5727;42.600;23.028;2022-08-30T13:55:00;11.35;;;8.15;;
11344;SDS011;5727;42.600;23.028;2022-08-30T13:57:28;11.65;;;8.57;;
11344;SDS011;5727;42.600;23.028;2022-08-30T13:59:55;10.93;;;7.90;;
11344;SDS011;5727;42.600;23.028;2022-08-30T14:02:29;11.82;;;8.90;;
11344;SDS011;5727;42.600;23.028;2022-08-30T14:05:00;10.93;;;8.00;;
11344;SDS011;5727;42.600;23.028;2022-08-30T14:07:27;8.70;;;7.15;;
11344;SDS011;5727;42.600;23.028;2022-08-30T14:09:54;9.93;;;7.38;;
11344;SDS011;5727;42.600;23.028;2022-08-30T14:12:22;8.98;;;7.18;;
11344;SDS011;5727;42.600;23.028;2022-08-30T14:14:49;14.95;;;7.47;;
11344;SDS011;5727;42.600;23.028;2022-08-30T14:17:31;10.02;;;7.00;;
11344;SDS011;5727;42.600;23.028;2022-08-30T14:22:50;7.75;;;6.30;;
11344;SDS011;5727;42.600;23.028;2022-08-30T14:25:17;11.40;;;6.85;;
11344;SDS011;5727;42.600;23.028;2022-08-30T14:27:43;9.40;;;6.55;;
11344;SDS011;5727;42.600;23.028;2022-08-30T14:30:10;10.55;;;6.78;;
11344;SDS011;5727;42.600;23.028;2022-08-30T14:32:37;8.98;;;6.70;;
11344;SDS011;5727;42.600;23.028;2022-08-30T14:35:05;8.13;;;6.57;;
11344;SDS011;5727;42.600;23.028;2022-08-30T14:37:34;9.07;;;7.10;;
11344;SDS011;5727;42.600;23.028;2022-08-30T14:40:01;10.13;;;7.72;;
11344;SDS011;5727;42.600;23.028;2022-08-30T14:42:28;11.40;;;7.38;;
11344;SDS011;5727;42.600;23.028;2022-08-30T14:44:55;9.30;;;7.28;;
11344;SDS011;5727;42.600;23.028;2022-08-30T14:47:22;11.02;;;6.93;;
11344;SDS011;5727;42.600;23.028;2022-08-30T14:49:49;12.43;;;6.57;;
11344;SDS011;5727;42.600;23.028;2022-08-30T14:52:17;8.10;;;7.22;;
11344;SDS011;5727;42.600;23.028;2022-08-30T14:54:45;12.13;;;6.60;;
11344;SDS011;5727;42.600;23.028;2022-08-30T14:57:12;7.57;;;6.88;;
11344;SDS011;5727;42.600;23.028;2022-08-30T14:59:39;9.63;;;7.50;;
11344;SDS011;5727;42.600;23.028;2022-08-30T15:02:06;10.77;;;6.85;;
11344;SDS011;5727;42.600;23.028;2022-08-30T15:04:33;11.85;;;7.90;;
11344;SDS011;5727;42.600;23.028;2022-08-30T15:07:00;10.60;;;7.35;;
11344;SDS011;5727;42.600;23.028;2022-08-30T15:09:27;10.27;;;7.95;;
11344;SDS011;5727;42.600;23.028;2022-08-30T15:11:56;10.68;;;7.57;;
11344;SDS011;5727;42.600;23.028;2022-08-30T15:14:25;9.90;;;7.70;;
11344;SDS011;5727;42.600;23.028;2022-08-30T15:16:53;11.00;;;8.00;;